sensor_id;sensor_type;location;lat;lon;timestamp;temperature;humidity
59847;DHT22;45728;48.788;2.302;2022-12-18T00:00:54;-3.00;99.90
59847;DHT22;45728;48.788;2.302;2022-12-18T00:03:20;-3.00;99.90
59847;DHT22;45728;48.788;2.302;2022-12-18T00:05:47;-3.10;99.90
59847;DHT22;45728;48.788;2.302;2022-12-18T00:08:14;-3.10;99.90
59847;DHT22;45728;48.788;2.302;2022-12-18T00:10:40;-3.00;99.90
59847;DHT22;45728;48.788;2.302;2022-12-18T00:13:06;-3.10;99.90
59847;DHT22;45728;48.788;2.302;2022-12-18T00:15:36;-3.10;99.90
59847;DHT22;45728;48.788;2.302;2022-12-18T00:18:03;-3.20;99.90
59847;DHT22;45728;48.788;2.302;2022-12-18T00:20:29;-3.10;99.90
59847;DHT22;45728;48.788;2.302;2022-12-18T00:22:56;-3.00;99.90
59847;DHT22;45728;48.788;2.302;2022-12-18T00:25:22;-3.10;99.90
59847;DHT22;45728;48.788;2.302;2022-12-18T00:27:48;-3.10;99.90
59847;DHT22;45728;48.788;2.302;2022-12-18T00:30:14;-3.10;99.90
59847;DHT22;45728;48.788;2.302;2022-12-18T00:32:40;-3.10;99.90
59847;DHT22;45728;48.788;2.302;2022-12-18T00:35:07;-3.10;99.90
59847;DHT22;45728;48.788;2.302;2022-12-18T00:37:33;-3.20;99.90
59847;DHT22;45728;48.788;2.302;2022-12-18T00:40:00;-3.30;99.90
59847;DHT22;45728;48.788;2.302;2022-12-18T00:42:26;-3.30;99.90
59847;DHT22;45728;48.788;2.302;2022-12-18T00:45:11;-3.30;99.90
59847;DHT22;45728;48.788;2.302;2022-12-18T00:47:37;-3.30;99.90
59847;DHT22;45728;48.788;2.302;2022-12-18T00:50:03;-3.40;99.90
59847;DHT22;45728;48.788;2.302;2022-12-18T00:52:29;-3.30;99.90
59847;DHT22;45728;48.788;2.302;2022-12-18T00:54:55;-3.20;99.90
59847;DHT22;45728;48.788;2.302;2022-12-18T00:57:21;-3.20;99.90
59847;DHT22;45728;48.788;2.302;2022-12-18T00:59:47;-3.20;99.90
59847;DHT22;45728;48.788;2.302;2022-12-18T01:02:13;-3.20;99.90
59847;DHT22;45728;48.788;2.302;2022-12-18T01:04:39;-3.20;99.90
59847;DHT22;45728;48.788;2.302;2022-12-18T01:07:05;-3.10;99.90
59847;DHT22;45728;48.788;2.302;2022-12-18T01:09:31;-3.20;99.90
59847;DHT22;45728;48.788;2.302;2022-12-18T01:11:58;-3.30;99.90
59847;DHT22;45728;48.788;2.302;2022-12-18T01:14:24;-3.20;99.90
59847;DHT22;45728;48.788;2.302;2022-12-18T01:16:50;-3.20;99.90
59847;DHT22;45728;48.788;2.302;2022-12-18T01:19:16;-3.20;99.90
59847;DHT22;45728;48.788;2.302;2022-12-18T01:21:42;-3.20;99.90
59847;DHT22;45728;48.788;2.302;2022-12-18T01:24:11;-3.20;99.90
59847;DHT22;45728;48.788;2.302;2022-12-18T01:26:38;-3.20;99.90
59847;DHT22;45728;48.788;2.302;2022-12-18T01:29:04;-3.20;99.90
59847;DHT22;45728;48.788;2.302;2022-12-18T01:31:32;-3.20;99.90
59847;DHT22;45728;48.788;2.302;2022-12-18T01:34:00;-3.30;99.90
59847;DHT22;45728;48.788;2.302;2022-12-18T01:36:29;-3.20;99.90
59847;DHT22;45728;48.788;2.302;2022-12-18T01:38:56;-3.30;99.90
59847;DHT22;45728;48.788;2.302;2022-12-18T01:41:25;-3.20;99.90
59847;DHT22;45728;48.788;2.302;2022-12-18T01:43:56;-3.30;99.90
59847;DHT22;45728;48.788;2.302;2022-12-18T01:46:26;-3.30;99.90
59847;DHT22;45728;48.788;2.302;2022-12-18T01:48:56;-3.30;99.90
59847;DHT22;45728;48.788;2.302;2022-12-18T01:51:24;-3.30;99.90
59847;DHT22;45728;48.788;2.302;2022-12-18T01:53:51;-3.30;99.90
59847;DHT22;45728;48.788;2.302;2022-12-18T01:56:19;-3.30;99.90
59847;DHT22;45728;48.788;2.302;2022-12-18T01:58:56;-3.30;99.90
59847;DHT22;45728;48.788;2.302;2022-12-18T02:01:24;-3.40;99.90
59847;DHT22;45728;48.788;2.302;2022-12-18T02:03:51;-3.30;99.90
59847;DHT22;45728;48.788;2.302;2022-12-18T02:06:33;-3.40;99.90
59847;DHT22;45728;48.788;2.302;2022-12-18T02:09:07;-3.40;99.90
59847;DHT22;45728;48.788;2.302;2022-12-18T02:11:48;-3.40;99.90
59847;DHT22;45728;48.788;2.302;2022-12-18T02:17:11;-3.40;99.90
59847;DHT22;45728;48.788;2.302;2022-12-18T02:19:46;-3.40;99.90
59847;DHT22;45728;48.788;2.302;2022-12-18T02:22:37;-3.50;99.90
59847;DHT22;45728;48.788;2.302;2022-12-18T02:28:30;-3.40;99.90
59847;DHT22;45728;48.788;2.302;2022-12-18T02:31:00;-3.40;99.90
59847;DHT22;45728;48.788;2.302;2022-12-18T02:33:27;-3.40;99.90
59847;DHT22;45728;48.788;2.302;2022-12-18T02:35:55;-3.40;99.90
59847;DHT22;45728;48.788;2.302;2022-12-18T02:38:23;-3.50;99.90
59847;DHT22;45728;48.788;2.302;2022-12-18T02:40:51;-3.50;99.90
59847;DHT22;45728;48.788;2.302;2022-12-18T02:43:19;-3.40;99.90
59847;DHT22;45728;48.788;2.302;2022-12-18T02:45:57;-3.50;99.90
59847;DHT22;45728;48.788;2.302;2022-12-18T02:48:32;-3.50;99.90
59847;DHT22;45728;48.788;2.302;2022-12-18T02:53:42;-3.40;99.90
59847;DHT22;45728;48.788;2.302;2022-12-18T02:56:28;-3.40;99.90
59847;DHT22;45728;48.788;2.302;2022-12-18T03:04:12;-3.40;99.90
59847;DHT22;45728;48.788;2.302;2022-12-18T03:06:44;-3.40;99.90
59847;DHT22;45728;48.788;2.302;2022-12-18T03:09:19;-3.50;99.90
59847;DHT22;45728;48.788;2.302;2022-12-18T03:11:52;-3.50;99.90
59847;DHT22;45728;48.788;2.302;2022-12-18T03:14:41;-3.50;99.90
59847;DHT22;45728;48.788;2.302;2022-12-18T03:17:11;-3.40;99.90
59847;DHT22;45728;48.788;2.302;2022-12-18T03:19:40;-3.50;99.90
59847;DHT22;45728;48.788;2.302;2022-12-18T03:22:07;-3.50;99.90
59847;DHT22;45728;48.788;2.302;2022-12-18T03:24:35;-3.40;99.90
59847;DHT22;45728;48.788;2.302;2022-12-18T03:27:09;-3.50;99.90
59847;DHT22;45728;48.788;2.302;2022-12-18T03:29:43;-3.50;99.90
59847;DHT22;45728;48.788;2.302;2022-12-18T03:32:18;-3.50;99.90
59847;DHT22;45728;48.788;2.302;2022-12-18T03:34:49;-3.50;99.90
59847;DHT22;45728;48.788;2.302;2022-12-18T03:37:16;-3.50;99.90
59847;DHT22;45728;48.788;2.302;2022-12-18T03:39:42;-3.50;99.90
59847;DHT22;45728;48.788;2.302;2022-12-18T03:47:58;-3.60;99.90
59847;DHT22;45728;48.788;2.302;2022-12-18T03:55:51;-3.70;99.90
59847;DHT22;45728;48.788;2.302;2022-12-18T03:58:22;-3.70;99.90
59847;DHT22;45728;48.788;2.302;2022-12-18T04:00:51;-3.70;99.90
59847;DHT22;45728;48.788;2.302;2022-12-18T04:03:19;-3.70;99.90
59847;DHT22;45728;48.788;2.302;2022-12-18T04:05:47;-3.70;99.90
59847;DHT22;45728;48.788;2.302;2022-12-18T04:08:14;-3.70;99.90
59847;DHT22;45728;48.788;2.302;2022-12-18T04:10:40;-3.70;99.90
59847;DHT22;45728;48.788;2.302;2022-12-18T04:13:06;-3.70;99.90
59847;DHT22;45728;48.788;2.302;2022-12-18T04:15:36;-3.70;99.90
59847;DHT22;45728;48.788;2.302;2022-12-18T04:18:03;-3.70;99.90
59847;DHT22;45728;48.788;2.302;2022-12-18T04:20:29;-3.80;99.90
59847;DHT22;45728;48.788;2.302;2022-12-18T04:22:55;-3.80;99.90
59847;DHT22;45728;48.788;2.302;2022-12-18T04:25:21;-3.80;99.90
59847;DHT22;45728;48.788;2.302;2022-12-18T04:27:47;-3.80;99.90
59847;DHT22;45728;48.788;2.302;2022-12-18T04:30:14;-3.70;99.90
59847;DHT22;45728;48.788;2.302;2022-12-18T04:32:40;-3.80;99.90
59847;DHT22;45728;48.788;2.302;2022-12-18T04:35:06;-3.80;99.90
59847;DHT22;45728;48.788;2.302;2022-12-18T04:37:36;-3.70;99.90
59847;DHT22;45728;48.788;2.302;2022-12-18T04:40:02;-3.80;99.90
59847;DHT22;45728;48.788;2.302;2022-12-18T04:42:28;-3.80;99.90
59847;DHT22;45728;48.788;2.302;2022-12-18T04:44:54;-3.90;99.90
59847;DHT22;45728;48.788;2.302;2022-12-18T04:47:20;-3.80;99.90
59847;DHT22;45728;48.788;2.302;2022-12-18T04:49:46;-3.80;99.90
59847;DHT22;45728;48.788;2.302;2022-12-18T04:52:12;-3.80;99.90
59847;DHT22;45728;48.788;2.302;2022-12-18T04:54:38;-3.80;99.90
59847;DHT22;45728;48.788;2.302;2022-12-18T04:57:04;-3.80;99.90
59847;DHT22;45728;48.788;2.302;2022-12-18T04:59:30;-3.80;99.90
59847;DHT22;45728;48.788;2.302;2022-12-18T05:01:56;-3.80;99.90
59847;DHT22;45728;48.788;2.302;2022-12-18T05:04:22;-3.80;99.90
59847;DHT22;45728;48.788;2.302;2022-12-18T05:06:48;-3.80;99.90
59847;DHT22;45728;48.788;2.302;2022-12-18T05:09:14;-3.80;99.90
59847;DHT22;45728;48.788;2.302;2022-12-18T05:11:40;-3.80;99.90
59847;DHT22;45728;48.788;2.302;2022-12-18T05:14:07;-3.80;99.90
59847;DHT22;45728;48.788;2.302;2022-12-18T05:16:33;-3.80;99.90
59847;DHT22;45728;48.788;2.302;2022-12-18T05:18:59;-3.80;99.90
59847;DHT22;45728;48.788;2.302;2022-12-18T05:21:25;-3.80;99.90
59847;DHT22;45728;48.788;2.302;2022-12-18T05:23:51;-3.80;99.90
59847;DHT22;45728;48.788;2.302;2022-12-18T05:26:18;-3.80;99.90
59847;DHT22;45728;48.788;2.302;2022-12-18T05:28:45;-3.80;99.90
59847;DHT22;45728;48.788;2.302;2022-12-18T05:31:11;-3.90;99.90
59847;DHT22;45728;48.788;2.302;2022-12-18T05:33:38;-3.90;99.90
59847;DHT22;45728;48.788;2.302;2022-12-18T05:36:06;-3.90;99.90
59847;DHT22;45728;48.788;2.302;2022-12-18T05:38:34;-3.90;99.90
59847;DHT22;45728;48.788;2.302;2022-12-18T05:41:00;-3.90;99.90
59847;DHT22;45728;48.788;2.302;2022-12-18T05:43:27;-3.90;99.90
59847;DHT22;45728;48.788;2.302;2022-12-18T05:45:54;-3.90;99.90
59847;DHT22;45728;48.788;2.302;2022-12-18T05:48:20;-3.90;99.90
59847;DHT22;45728;48.788;2.302;2022-12-18T05:50:48;-3.90;99.90
59847;DHT22;45728;48.788;2.302;2022-12-18T05:53:16;-3.90;99.90
59847;DHT22;45728;48.788;2.302;2022-12-18T05:55:44;-4.00;99.90
59847;DHT22;45728;48.788;2.302;2022-12-18T05:58:11;-3.90;99.90
59847;DHT22;45728;48.788;2.302;2022-12-18T06:00:40;-3.90;99.90
59847;DHT22;45728;48.788;2.302;2022-12-18T06:03:07;-3.90;99.90
59847;DHT22;45728;48.788;2.302;2022-12-18T06:05:39;-4.00;99.90
59847;DHT22;45728;48.788;2.302;2022-12-18T06:08:05;-3.90;99.90
59847;DHT22;45728;48.788;2.302;2022-12-18T06:10:31;-3.90;99.90
59847;DHT22;45728;48.788;2.302;2022-12-18T06:12:58;-3.90;99.90
59847;DHT22;45728;48.788;2.302;2022-12-18T06:15:24;-3.90;99.90
59847;DHT22;45728;48.788;2.302;2022-12-18T06:17:50;-3.90;99.90
59847;DHT22;45728;48.788;2.302;2022-12-18T06:20:17;-3.90;99.90
59847;DHT22;45728;48.788;2.302;2022-12-18T06:22:43;-3.90;99.90
59847;DHT22;45728;48.788;2.302;2022-12-18T06:25:09;-3.80;99.90
59847;DHT22;45728;48.788;2.302;2022-12-18T06:27:35;-3.80;99.90
59847;DHT22;45728;48.788;2.302;2022-12-18T06:30:02;-3.90;99.90
59847;DHT22;45728;48.788;2.302;2022-12-18T06:32:28;-3.80;99.90
59847;DHT22;45728;48.788;2.302;2022-12-18T06:34:54;-3.80;99.90
59847;DHT22;45728;48.788;2.302;2022-12-18T06:37:22;-3.80;99.90
59847;DHT22;45728;48.788;2.302;2022-12-18T06:39:52;-3.80;99.90
59847;DHT22;45728;48.788;2.302;2022-12-18T06:42:18;-3.80;99.90
59847;DHT22;45728;48.788;2.302;2022-12-18T06:44:45;-3.80;99.90
59847;DHT22;45728;48.788;2.302;2022-12-18T06:47:11;-3.80;99.90
59847;DHT22;45728;48.788;2.302;2022-12-18T06:49:37;-3.90;99.90
59847;DHT22;45728;48.788;2.302;2022-12-18T06:52:03;-3.90;99.90
59847;DHT22;45728;48.788;2.302;2022-12-18T06:54:29;-3.90;99.90
59847;DHT22;45728;48.788;2.302;2022-12-18T06:56:55;-3.90;99.90
59847;DHT22;45728;48.788;2.302;2022-12-18T06:59:21;-3.90;99.90
59847;DHT22;45728;48.788;2.302;2022-12-18T07:01:47;-4.00;99.90
59847;DHT22;45728;48.788;2.302;2022-12-18T07:04:13;-4.00;99.90
59847;DHT22;45728;48.788;2.302;2022-12-18T07:06:39;-4.00;99.90
59847;DHT22;45728;48.788;2.302;2022-12-18T07:09:05;-4.00;99.90
59847;DHT22;45728;48.788;2.302;2022-12-18T07:11:34;-3.90;99.90
59847;DHT22;45728;48.788;2.302;2022-12-18T07:14:00;-4.00;99.90
59847;DHT22;45728;48.788;2.302;2022-12-18T07:16:27;-4.00;99.90
59847;DHT22;45728;48.788;2.302;2022-12-18T07:18:55;-4.00;99.90
59847;DHT22;45728;48.788;2.302;2022-12-18T07:21:23;-4.00;99.90
59847;DHT22;45728;48.788;2.302;2022-12-18T07:23:49;-4.00;99.90
59847;DHT22;45728;48.788;2.302;2022-12-18T07:26:19;-4.00;99.90
59847;DHT22;45728;48.788;2.302;2022-12-18T07:28:46;-4.00;99.90
59847;DHT22;45728;48.788;2.302;2022-12-18T07:31:17;-3.90;99.90
59847;DHT22;45728;48.788;2.302;2022-12-18T07:33:45;-3.90;99.90
59847;DHT22;45728;48.788;2.302;2022-12-18T07:36:12;-4.00;99.90
59847;DHT22;45728;48.788;2.302;2022-12-18T07:38:39;-3.90;99.90
59847;DHT22;45728;48.788;2.302;2022-12-18T07:41:07;-3.90;99.90
59847;DHT22;45728;48.788;2.302;2022-12-18T07:43:34;-4.00;99.90
59847;DHT22;45728;48.788;2.302;2022-12-18T07:46:01;-3.90;99.90
59847;DHT22;45728;48.788;2.302;2022-12-18T07:48:30;-3.90;99.90
59847;DHT22;45728;48.788;2.302;2022-12-18T07:51:05;-3.90;99.90
59847;DHT22;45728;48.788;2.302;2022-12-18T07:53:32;-3.90;99.90
59847;DHT22;45728;48.788;2.302;2022-12-18T07:56:00;-3.90;99.90
59847;DHT22;45728;48.788;2.302;2022-12-18T07:58:26;-3.90;99.90
59847;DHT22;45728;48.788;2.302;2022-12-18T08:00:52;-3.90;99.90
59847;DHT22;45728;48.788;2.302;2022-12-18T08:03:19;-3.90;99.90
59847;DHT22;45728;48.788;2.302;2022-12-18T08:05:45;-3.90;99.90
59847;DHT22;45728;48.788;2.302;2022-12-18T08:08:11;-3.90;99.90
59847;DHT22;45728;48.788;2.302;2022-12-18T08:10:37;-3.90;99.90
59847;DHT22;45728;48.788;2.302;2022-12-18T08:13:04;-3.90;99.90
59847;DHT22;45728;48.788;2.302;2022-12-18T08:15:30;-3.80;99.90
59847;DHT22;45728;48.788;2.302;2022-12-18T08:17:57;-3.80;99.90
59847;DHT22;45728;48.788;2.302;2022-12-18T08:20:23;-3.80;99.90
59847;DHT22;45728;48.788;2.302;2022-12-18T08:22:49;-3.80;99.90
59847;DHT22;45728;48.788;2.302;2022-12-18T08:25:15;-3.80;99.90
59847;DHT22;45728;48.788;2.302;2022-12-18T08:27:41;-3.70;99.90
59847;DHT22;45728;48.788;2.302;2022-12-18T08:30:08;-3.70;99.90
59847;DHT22;45728;48.788;2.302;2022-12-18T08:33:11;-3.70;99.90
59847;DHT22;45728;48.788;2.302;2022-12-18T08:35:37;-3.70;99.90
59847;DHT22;45728;48.788;2.302;2022-12-18T08:38:03;-3.70;99.90
59847;DHT22;45728;48.788;2.302;2022-12-18T08:40:30;-3.60;99.90
59847;DHT22;45728;48.788;2.302;2022-12-18T08:42:56;-3.60;99.90
59847;DHT22;45728;48.788;2.302;2022-12-18T08:45:40;-3.50;99.90
59847;DHT22;45728;48.788;2.302;2022-12-18T08:48:06;-3.50;99.90
59847;DHT22;45728;48.788;2.302;2022-12-18T08:50:33;-3.50;99.90
59847;DHT22;45728;48.788;2.302;2022-12-18T08:52:59;-3.50;99.90
59847;DHT22;45728;48.788;2.302;2022-12-18T08:55:25;-3.40;99.90
59847;DHT22;45728;48.788;2.302;2022-12-18T08:57:51;-3.40;99.90
59847;DHT22;45728;48.788;2.302;2022-12-18T09:00:17;-3.50;99.90
59847;DHT22;45728;48.788;2.302;2022-12-18T09:02:43;-3.40;99.90
59847;DHT22;45728;48.788;2.302;2022-12-18T09:05:09;-3.50;99.90
59847;DHT22;45728;48.788;2.302;2022-12-18T09:07:35;-3.40;99.90
59847;DHT22;45728;48.788;2.302;2022-12-18T09:10:02;-3.40;99.90
59847;DHT22;45728;48.788;2.302;2022-12-18T09:12:28;-3.30;99.90
59847;DHT22;45728;48.788;2.302;2022-12-18T09:14:54;-3.20;99.90
59847;DHT22;45728;48.788;2.302;2022-12-18T09:17:20;-3.20;99.90
59847;DHT22;45728;48.788;2.302;2022-12-18T09:19:46;-3.20;99.90
59847;DHT22;45728;48.788;2.302;2022-12-18T09:22:12;-3.10;99.90
59847;DHT22;45728;48.788;2.302;2022-12-18T09:24:38;-3.10;99.90
59847;DHT22;45728;48.788;2.302;2022-12-18T09:27:04;-3.10;99.90
59847;DHT22;45728;48.788;2.302;2022-12-18T09:29:30;-3.00;99.90
59847;DHT22;45728;48.788;2.302;2022-12-18T09:31:56;-2.90;99.90
59847;DHT22;45728;48.788;2.302;2022-12-18T09:34:22;-2.90;99.90
59847;DHT22;45728;48.788;2.302;2022-12-18T09:36:49;-2.90;99.90
59847;DHT22;45728;48.788;2.302;2022-12-18T09:39:15;-2.90;99.90
59847;DHT22;45728;48.788;2.302;2022-12-18T09:47:25;-2.80;99.90
59847;DHT22;45728;48.788;2.302;2022-12-18T09:50:20;-2.80;99.90
59847;DHT22;45728;48.788;2.302;2022-12-18T09:52:46;-2.80;99.90
59847;DHT22;45728;48.788;2.302;2022-12-18T09:55:30;-2.80;99.90
59847;DHT22;45728;48.788;2.302;2022-12-18T09:58:02;-2.80;99.90
59847;DHT22;45728;48.788;2.302;2022-12-18T10:00:30;-2.70;99.90
59847;DHT22;45728;48.788;2.302;2022-12-18T10:03:01;-2.60;99.90
59847;DHT22;45728;48.788;2.302;2022-12-18T10:05:33;-2.60;99.90
59847;DHT22;45728;48.788;2.302;2022-12-18T10:08:08;-2.50;99.90
59847;DHT22;45728;48.788;2.302;2022-12-18T10:10:59;-2.40;99.90
59847;DHT22;45728;48.788;2.302;2022-12-18T10:21:49;-2.20;99.90
59847;DHT22;45728;48.788;2.302;2022-12-18T10:26:54;-2.20;99.90
59847;DHT22;45728;48.788;2.302;2022-12-18T10:29:22;-2.10;99.90
59847;DHT22;45728;48.788;2.302;2022-12-18T10:31:50;-2.10;99.90
59847;DHT22;45728;48.788;2.302;2022-12-18T10:34:16;-2.10;99.90
59847;DHT22;45728;48.788;2.302;2022-12-18T10:36:42;-2.00;99.90
59847;DHT22;45728;48.788;2.302;2022-12-18T10:39:23;-1.90;99.90
59847;DHT22;45728;48.788;2.302;2022-12-18T10:41:49;-1.90;99.90
59847;DHT22;45728;48.788;2.302;2022-12-18T10:44:21;-1.80;99.90
59847;DHT22;45728;48.788;2.302;2022-12-18T10:46:49;-1.90;99.90
59847;DHT22;45728;48.788;2.302;2022-12-18T10:49:31;-1.90;99.90
59847;DHT22;45728;48.788;2.302;2022-12-18T10:52:07;-1.80;99.90
59847;DHT22;45728;48.788;2.302;2022-12-18T10:54:34;-1.80;99.90
59847;DHT22;45728;48.788;2.302;2022-12-18T10:57:32;-1.70;99.90
59847;DHT22;45728;48.788;2.302;2022-12-18T11:00:12;-1.60;99.90
59847;DHT22;45728;48.788;2.302;2022-12-18T11:02:45;-1.70;99.90
59847;DHT22;45728;48.788;2.302;2022-12-18T11:05:24;-1.70;99.90
59847;DHT22;45728;48.788;2.302;2022-12-18T11:07:51;-1.50;99.90
59847;DHT22;45728;48.788;2.302;2022-12-18T11:10:28;-1.50;99.90
59847;DHT22;45728;48.788;2.302;2022-12-18T11:12:54;-1.50;99.90
59847;DHT22;45728;48.788;2.302;2022-12-18T11:15:25;-1.40;99.90
59847;DHT22;45728;48.788;2.302;2022-12-18T11:17:52;-1.30;99.90
59847;DHT22;45728;48.788;2.302;2022-12-18T11:23:01;-1.30;99.90
59847;DHT22;45728;48.788;2.302;2022-12-18T11:25:28;-1.30;99.90
59847;DHT22;45728;48.788;2.302;2022-12-18T11:28:04;-1.30;99.90
59847;DHT22;45728;48.788;2.302;2022-12-18T11:30:33;-1.20;99.90
59847;DHT22;45728;48.788;2.302;2022-12-18T11:33:21;-1.20;99.90
59847;DHT22;45728;48.788;2.302;2022-12-18T11:35:55;-1.10;99.90
59847;DHT22;45728;48.788;2.302;2022-12-18T11:38:37;-1.10;99.90
59847;DHT22;45728;48.788;2.302;2022-12-18T11:41:19;-1.10;99.90
59847;DHT22;45728;48.788;2.302;2022-12-18T11:43:59;-1.00;99.90
59847;DHT22;45728;48.788;2.302;2022-12-18T11:46:33;-1.00;99.90
59847;DHT22;45728;48.788;2.302;2022-12-18T11:49:34;-1.00;99.90
59847;DHT22;45728;48.788;2.302;2022-12-18T11:52:35;-1.00;99.90
59847;DHT22;45728;48.788;2.302;2022-12-18T11:55:11;-0.90;99.90
59847;DHT22;45728;48.788;2.302;2022-12-18T12:00:21;-0.80;99.90
59847;DHT22;45728;48.788;2.302;2022-12-18T12:18:48;-0.40;99.90
59847;DHT22;45728;48.788;2.302;2022-12-18T12:24:20;-0.40;99.90
59847;DHT22;45728;48.788;2.302;2022-12-18T12:26:55;-0.40;99.90
59847;DHT22;45728;48.788;2.302;2022-12-18T12:29:39;-0.30;99.90
59847;DHT22;45728;48.788;2.302;2022-12-18T12:40:14;-0.10;99.90
59847;DHT22;45728;48.788;2.302;2022-12-18T12:42:47;-0.20;99.90
59847;DHT22;45728;48.788;2.302;2022-12-18T12:48:40;0.00;99.90
59847;DHT22;45728;48.788;2.302;2022-12-18T12:51:16;0.10;99.90
59847;DHT22;45728;48.788;2.302;2022-12-18T12:53:43;0.10;99.90
59847;DHT22;45728;48.788;2.302;2022-12-18T12:56:12;0.10;99.90
59847;DHT22;45728;48.788;2.302;2022-12-18T13:02:05;0.40;99.90
59847;DHT22;45728;48.788;2.302;2022-12-18T13:04:45;0.40;99.90
59847;DHT22;45728;48.788;2.302;2022-12-18T13:15:24;0.50;99.90
59847;DHT22;45728;48.788;2.302;2022-12-18T13:20:39;0.60;99.90
59847;DHT22;45728;48.788;2.302;2022-12-18T13:29:04;0.60;99.90
59847;DHT22;45728;48.788;2.302;2022-12-18T13:36:45;0.70;99.90
59847;DHT22;45728;48.788;2.302;2022-12-18T13:41:50;0.70;99.90
59847;DHT22;45728;48.788;2.302;2022-12-18T13:44:38;0.70;99.90
59847;DHT22;45728;48.788;2.302;2022-12-18T13:47:34;0.70;99.90
59847;DHT22;45728;48.788;2.302;2022-12-18T13:50:08;0.70;99.90
59847;DHT22;45728;48.788;2.302;2022-12-18T13:52:37;0.80;99.90
59847;DHT22;45728;48.788;2.302;2022-12-18T13:55:10;0.80;99.90
59847;DHT22;45728;48.788;2.302;2022-12-18T13:57:40;0.80;99.90
59847;DHT22;45728;48.788;2.302;2022-12-18T14:00:32;0.90;99.90
59847;DHT22;45728;48.788;2.302;2022-12-18T14:02:59;0.90;99.90
59847;DHT22;45728;48.788;2.302;2022-12-18T14:05:34;0.90;99.90
59847;DHT22;45728;48.788;2.302;2022-12-18T14:08:05;0.90;99.90
59847;DHT22;45728;48.788;2.302;2022-12-18T14:10:32;0.90;99.90
59847;DHT22;45728;48.788;2.302;2022-12-18T14:13:05;1.00;99.90
59847;DHT22;45728;48.788;2.302;2022-12-18T14:15:39;1.10;99.90
59847;DHT22;45728;48.788;2.302;2022-12-18T14:18:43;1.10;99.90
59847;DHT22;45728;48.788;2.302;2022-12-18T14:21:19;1.10;99.90
59847;DHT22;45728;48.788;2.302;2022-12-18T14:23:46;1.20;99.90
59847;DHT22;45728;48.788;2.302;2022-12-18T14:26:25;1.20;99.90
59847;DHT22;45728;48.788;2.302;2022-12-18T14:29:14;1.20;99.90
59847;DHT22;45728;48.788;2.302;2022-12-18T14:31:43;1.20;99.90
59847;DHT22;45728;48.788;2.302;2022-12-18T14:34:16;1.20;99.90
59847;DHT22;45728;48.788;2.302;2022-12-18T14:36:52;1.30;99.90
59847;DHT22;45728;48.788;2.302;2022-12-18T14:39:18;1.40;99.90
59847;DHT22;45728;48.788;2.302;2022-12-18T14:41:45;1.40;99.90
59847;DHT22;45728;48.788;2.302;2022-12-18T14:44:12;1.40;99.90
59847;DHT22;45728;48.788;2.302;2022-12-18T14:46:41;1.40;99.90
59847;DHT22;45728;48.788;2.302;2022-12-18T14:49:26;1.50;99.90
59847;DHT22;45728;48.788;2.302;2022-12-18T14:51:56;1.50;99.90
59847;DHT22;45728;48.788;2.302;2022-12-18T14:54:24;1.50;99.90
59847;DHT22;45728;48.788;2.302;2022-12-18T14:56:59;1.50;99.90
59847;DHT22;45728;48.788;2.302;2022-12-18T14:59:27;1.60;99.90
59847;DHT22;45728;48.788;2.302;2022-12-18T15:02:04;1.60;99.90
59847;DHT22;45728;48.788;2.302;2022-12-18T15:04:36;1.60;99.90
59847;DHT22;45728;48.788;2.302;2022-12-18T15:07:09;1.60;99.90
59847;DHT22;45728;48.788;2.302;2022-12-18T15:09:38;1.60;99.90
59847;DHT22;45728;48.788;2.302;2022-12-18T15:12:25;1.60;99.90
59847;DHT22;45728;48.788;2.302;2022-12-18T15:14:51;1.70;99.90
59847;DHT22;45728;48.788;2.302;2022-12-18T15:17:23;1.70;99.90
59847;DHT22;45728;48.788;2.302;2022-12-18T15:19:51;1.70;99.90
59847;DHT22;45728;48.788;2.302;2022-12-18T15:22:30;1.70;99.90
59847;DHT22;45728;48.788;2.302;2022-12-18T15:24:58;1.70;99.90
59847;DHT22;45728;48.788;2.302;2022-12-18T15:27:33;1.70;99.90
59847;DHT22;45728;48.788;2.302;2022-12-18T15:32:37;1.80;99.90
59847;DHT22;45728;48.788;2.302;2022-12-18T15:35:15;1.80;99.90
59847;DHT22;45728;48.788;2.302;2022-12-18T15:37:41;1.80;99.90
59847;DHT22;45728;48.788;2.302;2022-12-18T15:40:28;1.80;99.90
59847;DHT22;45728;48.788;2.302;2022-12-18T15:42:55;1.80;99.90
59847;DHT22;45728;48.788;2.302;2022-12-18T15:45:40;1.80;99.90
59847;DHT22;45728;48.788;2.302;2022-12-18T15:48:21;1.90;99.90
59847;DHT22;45728;48.788;2.302;2022-12-18T15:50:52;1.90;99.90
59847;DHT22;45728;48.788;2.302;2022-12-18T15:53:19;1.90;99.90
59847;DHT22;45728;48.788;2.302;2022-12-18T15:55:45;1.90;99.90
59847;DHT22;45728;48.788;2.302;2022-12-18T15:58:29;1.90;99.90
59847;DHT22;45728;48.788;2.302;2022-12-18T16:00:57;1.90;99.90
59847;DHT22;45728;48.788;2.302;2022-12-18T16:03:24;2.00;99.90
59847;DHT22;45728;48.788;2.302;2022-12-18T16:05:50;1.90;99.90
59847;DHT22;45728;48.788;2.302;2022-12-18T16:08:16;2.00;99.90
59847;DHT22;45728;48.788;2.302;2022-12-18T16:10:42;2.00;99.90
59847;DHT22;45728;48.788;2.302;2022-12-18T16:13:12;2.00;99.90
59847;DHT22;45728;48.788;2.302;2022-12-18T16:15:40;2.00;99.90
59847;DHT22;45728;48.788;2.302;2022-12-18T16:18:06;2.00;99.90
59847;DHT22;45728;48.788;2.302;2022-12-18T16:20:32;2.00;99.90
59847;DHT22;45728;48.788;2.302;2022-12-18T16:22:58;2.00;99.90
59847;DHT22;45728;48.788;2.302;2022-12-18T16:25:27;2.00;99.90
59847;DHT22;45728;48.788;2.302;2022-12-18T16:27:54;2.00;99.90
59847;DHT22;45728;48.788;2.302;2022-12-18T16:30:24;2.00;99.90
59847;DHT22;45728;48.788;2.302;2022-12-18T16:32:52;2.00;99.90
59847;DHT22;45728;48.788;2.302;2022-12-18T16:35:18;2.00;99.90
59847;DHT22;45728;48.788;2.302;2022-12-18T16:37:44;2.00;99.90
59847;DHT22;45728;48.788;2.302;2022-12-18T16:40:14;2.00;99.90
59847;DHT22;45728;48.788;2.302;2022-12-18T16:42:42;2.00;99.90
59847;DHT22;45728;48.788;2.302;2022-12-18T16:45:11;2.10;99.90
59847;DHT22;45728;48.788;2.302;2022-12-18T16:47:37;2.10;99.90
59847;DHT22;45728;48.788;2.302;2022-12-18T16:50:04;2.10;99.90
59847;DHT22;45728;48.788;2.302;2022-12-18T16:52:31;2.10;99.90
59847;DHT22;45728;48.788;2.302;2022-12-18T16:54:57;2.10;99.90
59847;DHT22;45728;48.788;2.302;2022-12-18T16:57:23;2.10;99.90
59847;DHT22;45728;48.788;2.302;2022-12-18T16:59:49;2.20;99.90
59847;DHT22;45728;48.788;2.302;2022-12-18T17:02:23;2.10;99.90
59847;DHT22;45728;48.788;2.302;2022-12-18T17:04:53;2.10;99.90
59847;DHT22;45728;48.788;2.302;2022-12-18T17:07:19;2.10;99.90
59847;DHT22;45728;48.788;2.302;2022-12-18T17:09:45;2.10;99.90
59847;DHT22;45728;48.788;2.302;2022-12-18T17:12:11;2.20;99.90
59847;DHT22;45728;48.788;2.302;2022-12-18T17:14:38;2.20;99.90
59847;DHT22;45728;48.788;2.302;2022-12-18T17:17:04;2.20;99.90
59847;DHT22;45728;48.788;2.302;2022-12-18T17:19:30;2.20;99.90
59847;DHT22;45728;48.788;2.302;2022-12-18T17:21:56;2.20;99.90
59847;DHT22;45728;48.788;2.302;2022-12-18T17:24:22;2.30;99.90
59847;DHT22;45728;48.788;2.302;2022-12-18T17:26:48;2.20;99.90
59847;DHT22;45728;48.788;2.302;2022-12-18T17:29:17;2.30;99.90
59847;DHT22;45728;48.788;2.302;2022-12-18T17:31:45;2.30;99.90
59847;DHT22;45728;48.788;2.302;2022-12-18T17:34:12;2.30;99.90
59847;DHT22;45728;48.788;2.302;2022-12-18T17:36:38;2.30;99.90
59847;DHT22;45728;48.788;2.302;2022-12-18T17:39:05;2.40;99.90